createdAt,value
2019-04-28T00:00:45.709Z,10.00
2019-04-28T00:01:45.796Z,9.97
2019-04-28T00:02:45.880Z,9.96
2019-04-28T00:03:45.970Z,10.03
2019-04-28T00:04:46.060Z,10.00
2019-04-28T00:05:46.151Z,10.09
2019-04-28T00:06:46.242Z,10.09
2019-04-28T00:07:46.331Z,10.12
2019-04-28T00:08:46.423Z,10.14
2019-04-28T00:09:46.513Z,10.09
2019-04-28T00:10:55.263Z,10.18
2019-04-28T00:11:46.737Z,10.10
2019-04-28T00:12:55.465Z,10.01
2019-04-28T00:13:55.575Z,9.99
2019-04-28T00:14:47.048Z,9.99
2019-04-28T00:15:47.136Z,9.91
2019-04-28T00:16:47.235Z,9.97
2019-04-28T00:17:47.317Z,9.91
2019-04-28T00:18:57.059Z,9.97
2019-04-28T00:19:47.526Z,9.89
2019-04-28T00:20:57.271Z,9.99
2019-04-28T00:21:47.740Z,9.88
2019-04-28T00:22:47.831Z,9.96
2019-04-28T00:23:47.923Z,9.99
2019-04-28T00:24:48.013Z,10.01
2019-04-28T00:25:48.100Z,10.00
2019-04-28T00:26:48.190Z,9.93
2019-04-28T00:27:48.288Z,9.99
2019-04-28T00:28:48.381Z,10.00
2019-04-28T00:29:48.472Z,9.99
2019-04-28T00:30:48.554Z,10.01
2019-04-28T00:31:48.652Z,10.01
2019-04-28T00:32:48.743Z,9.99
2019-04-28T00:33:48.850Z,10.09
2019-04-28T00:34:50.992Z,10.06
2019-04-28T00:35:49.017Z,10.03
2019-04-28T00:36:51.104Z,10.07
2019-04-28T00:37:49.199Z,10.09
2019-04-28T00:38:49.291Z,10.00
2019-04-28T00:39:50.975Z,10.03
2019-04-28T00:40:51.141Z,10.01
2019-04-28T00:41:51.165Z,10.04
2019-04-28T00:42:51.190Z,10.07
2019-04-28T00:43:51.415Z,10.09
2019-04-28T00:44:51.505Z,10.04
2019-04-28T00:45:51.301Z,10.07
2019-04-28T00:46:51.145Z,10.14
2019-04-28T00:47:51.053Z,10.07
2019-04-28T00:48:50.838Z,10.15
2019-04-28T00:49:51.955Z,10.17
2019-04-28T00:50:51.863Z,9.99
2019-04-28T00:51:50.917Z,10.15
2019-04-28T00:52:51.817Z,9.99
2019-04-28T00:53:50.981Z,10.00
2019-04-28T00:54:52.484Z,9.99
2019-04-28T00:55:51.589Z,10.00
2019-04-28T00:56:51.701Z,10.06
2019-04-28T00:57:51.031Z,9.99
2019-04-28T00:58:51.365Z,10.01
2019-04-28T00:59:57.673Z,10.03
2019-04-28T01:00:51.420Z,10.00
2019-04-28T01:01:51.434Z,9.94
2019-04-28T01:02:51.475Z,10.03
2019-04-28T01:03:51.989Z,10.06
2019-04-28T01:04:51.662Z,10.06
2019-04-28T01:05:51.743Z,10.07
2019-04-28T01:06:52.117Z,10.09
2019-04-28T01:07:51.924Z,10.03
2019-04-28T01:08:52.021Z,10.14
2019-04-28T01:09:52.108Z,10.10
2019-04-28T01:10:52.197Z,10.09
2019-04-28T01:11:53.467Z,10.00
2019-04-28T01:12:52.380Z,9.99
2019-04-28T01:13:52.472Z,9.96
2019-04-28T01:14:55.045Z,10.03
2019-04-28T01:15:52.651Z,10.09
2019-04-28T01:16:52.744Z,10.00
2019-04-28T01:17:52.838Z,10.06
2019-04-28T01:18:52.924Z,10.04
2019-04-28T01:19:53.027Z,9.96
2019-04-28T01:20:53.114Z,9.97
2019-04-28T01:21:53.198Z,10.00
2019-04-28T01:22:53.288Z,9.99
2019-04-28T01:23:53.381Z,9.83
2019-04-28T01:24:53.470Z,9.76
2019-04-28T01:25:53.582Z,9.83
2019-04-28T01:26:53.668Z,9.81
2019-04-28T01:27:53.763Z,9.78
2019-04-28T01:28:53.849Z,9.73
2019-04-28T01:30:05.354Z,9.73
2019-04-28T01:30:54.033Z,9.68
2019-04-28T01:31:54.126Z,9.79
2019-04-28T01:32:54.214Z,9.75
2019-04-28T01:33:54.307Z,9.71
2019-04-28T01:34:54.397Z,9.73
2019-04-28T01:35:54.486Z,9.76
2019-04-28T01:37:01.732Z,9.79
2019-04-28T01:37:54.701Z,9.78
2019-04-28T01:38:54.785Z,9.89
2019-04-28T01:39:54.877Z,9.85
2019-04-28T01:40:54.964Z,10.00
2019-04-28T01:41:55.054Z,9.86
2019-04-28T01:42:55.143Z,9.93
2019-04-28T01:43:55.233Z,9.85
2019-04-28T01:44:55.321Z,9.93
2019-04-28T01:45:55.414Z,10.01
2019-04-28T01:46:55.501Z,9.89
2019-04-28T01:47:55.599Z,9.94
2019-04-28T01:48:55.683Z,9.88
2019-04-28T01:49:55.775Z,9.97
2019-04-28T01:50:55.870Z,9.97
2019-04-28T01:51:55.954Z,9.99
2019-04-28T01:52:56.048Z,10.03
2019-04-28T01:53:56.136Z,9.93
2019-04-28T01:54:56.225Z,10.03
2019-04-28T01:55:56.320Z,10.03
2019-04-28T01:56:58.592Z,9.96
2019-04-28T01:57:56.497Z,10.00
2019-04-28T01:58:56.590Z,10.04
2019-04-28T01:59:56.679Z,10.06
2019-04-28T02:00:56.771Z,10.06
2019-04-28T02:01:56.865Z,10.07
2019-04-28T02:02:56.945Z,10.04
2019-04-28T02:03:57.039Z,10.07
2019-04-28T02:04:57.128Z,10.04
2019-04-28T02:05:57.218Z,9.91
2019-04-28T02:06:57.311Z,9.91
2019-04-28T02:07:57.399Z,10.01
2019-04-28T02:08:57.489Z,10.07
2019-04-28T02:09:57.579Z,10.01
2019-04-28T02:10:57.671Z,9.97
2019-04-28T02:11:57.760Z,9.97
2019-04-28T02:12:59.788Z,9.96
2019-04-28T02:13:59.587Z,9.99
2019-04-28T02:14:58.045Z,10.03
2019-04-28T02:15:59.858Z,10.04
2019-04-28T02:16:58.223Z,9.93
2019-04-28T02:18:00.097Z,10.00
2019-04-28T02:18:59.730Z,9.68
2019-04-28T02:20:00.413Z,9.71
2019-04-28T02:20:59.581Z,9.75
2019-04-28T02:21:59.496Z,9.82
2019-04-28T02:22:59.904Z,9.81
2019-04-28T02:23:59.892Z,9.81
2019-04-28T02:25:00.308Z,9.76
2019-04-28T02:25:59.730Z,9.82
2019-04-28T02:27:00.833Z,9.86
2019-04-28T02:27:59.640Z,9.66
2019-04-28T02:29:00.282Z,9.85
2019-04-28T02:30:00.112Z,9.91
2019-04-28T02:31:02.112Z,9.86
2019-04-28T02:32:02.145Z,9.88
2019-04-28T02:33:01.641Z,9.86
2019-04-28T02:34:00.794Z,9.86
2019-04-28T02:35:01.242Z,9.81
2019-04-28T02:36:01.458Z,9.89
2019-04-28T02:37:01.487Z,9.85
2019-04-28T02:38:00.237Z,9.85
2019-04-28T02:39:00.860Z,9.85
2019-04-28T02:40:03.351Z,9.78
2019-04-28T02:41:00.418Z,9.85
2019-04-28T02:42:01.382Z,9.81
2019-04-28T02:43:01.291Z,9.88
2019-04-28T02:44:01.071Z,9.88
2019-04-28T02:45:00.911Z,9.68
2019-04-28T02:46:00.888Z,9.73
2019-04-28T02:47:01.255Z,9.81
2019-04-28T02:48:01.198Z,9.75
2019-04-28T02:49:01.134Z,9.82
2019-04-28T02:50:01.267Z,9.88
2019-04-28T02:51:01.392Z,9.88
2019-04-28T02:52:03.017Z,9.73
2019-04-28T02:53:01.913Z,9.79
2019-04-28T02:54:01.583Z,9.82
2019-04-28T02:55:03.106Z,9.68
2019-04-28T02:56:01.771Z,9.75
2019-04-28T02:57:01.876Z,9.76
2019-04-28T02:58:01.956Z,9.75
2019-04-28T02:59:02.048Z,9.68
2019-04-28T03:00:02.139Z,9.71
2019-04-28T03:01:11.195Z,9.76
2019-04-28T03:02:02.325Z,9.81
2019-04-28T03:03:02.409Z,9.68
2019-04-28T03:04:02.502Z,9.71
2019-04-28T03:05:02.596Z,9.76
2019-04-28T03:06:02.692Z,9.75
2019-04-28T03:07:02.765Z,9.78
2019-04-28T03:08:02.858Z,9.71
2019-04-28T03:09:02.945Z,9.76
2019-04-28T03:10:03.811Z,9.67
2019-04-28T03:11:03.137Z,9.66
2019-04-28T03:12:03.219Z,9.71
2019-04-28T03:13:03.309Z,9.70
2019-04-28T03:14:03.403Z,9.61
2019-04-28T03:15:03.491Z,9.63
2019-04-28T03:16:03.589Z,9.63
2019-04-28T03:17:03.672Z,9.63
2019-04-28T03:18:03.774Z,9.64
2019-04-28T03:19:03.855Z,9.58
2019-04-28T03:20:03.945Z,9.52
2019-04-28T03:21:04.658Z,9.58
2019-04-28T03:22:04.124Z,9.53
2019-04-28T03:23:04.218Z,9.60
2019-04-28T03:24:04.304Z,9.58
2019-04-28T03:25:04.429Z,9.63
2019-04-28T03:26:04.486Z,9.57
2019-04-28T03:27:04.575Z,9.57
2019-04-28T03:28:04.666Z,9.58
2019-04-28T03:29:04.759Z,9.58
2019-04-28T03:30:04.849Z,9.64
2019-04-28T03:31:35.012Z,9.57
2019-04-28T03:32:28.865Z,9.63
2019-04-28T03:33:11.825Z,9.52
2019-04-28T03:34:05.227Z,9.50
2019-04-28T03:35:05.295Z,9.46
2019-04-28T03:36:08.453Z,9.60
2019-04-28T03:37:05.476Z,9.57
2019-04-28T03:38:05.576Z,9.64
2019-04-28T03:39:05.658Z,9.56
2019-04-28T03:40:05.752Z,9.57
2019-04-28T03:41:05.872Z,9.53
2019-04-28T03:42:05.921Z,9.42
2019-04-28T03:43:06.034Z,9.46
2019-04-28T03:44:06.108Z,9.46
2019-04-28T03:45:06.201Z,9.49
2019-04-28T03:46:06.285Z,9.49
2019-04-28T03:47:06.378Z,9.46
2019-04-28T03:48:06.468Z,9.48
2019-04-28T03:49:06.564Z,9.49
2019-04-28T03:50:06.647Z,9.46
2019-04-28T03:51:06.734Z,9.49
2019-04-28T03:52:06.841Z,9.52
2019-04-28T03:53:06.914Z,9.43
2019-04-28T03:54:07.003Z,9.50
2019-04-28T03:55:07.095Z,9.46
2019-04-28T03:56:07.172Z,9.46
2019-04-28T03:57:07.287Z,9.46
2019-04-28T03:58:07.359Z,9.45
2019-04-28T03:59:10.148Z,9.43
2019-04-28T04:00:07.536Z,9.39
2019-04-28T04:01:10.432Z,9.46
2019-04-28T04:02:07.730Z,9.38
2019-04-28T04:03:10.661Z,9.42
2019-04-28T04:04:07.893Z,9.40
2019-04-28T04:05:10.883Z,9.39
2019-04-28T04:06:10.369Z,9.43
2019-04-28T04:07:08.164Z,9.38
2019-04-28T04:08:10.726Z,9.40
2019-04-28T04:09:08.348Z,9.35
2019-04-28T04:10:11.186Z,9.32
2019-04-28T04:11:10.886Z,9.38
2019-04-28T04:12:11.130Z,9.38
2019-04-28T04:13:10.981Z,9.40
2019-04-28T04:14:11.296Z,9.38
2019-04-28T04:15:11.176Z,9.35
2019-04-28T04:16:10.392Z,9.31
2019-04-28T04:17:11.245Z,9.39
2019-04-28T04:18:10.987Z,9.42
2019-04-28T04:19:10.636Z,9.34
2019-04-28T04:20:11.096Z,9.39
2019-04-28T04:21:11.134Z,9.31
2019-04-28T04:22:10.175Z,9.35
2019-04-28T04:23:11.329Z,9.42
2019-04-28T04:24:10.846Z,9.38
2019-04-28T04:25:12.456Z,9.34
2019-04-28T04:26:11.667Z,9.30
2019-04-28T04:27:10.672Z,9.38
2019-04-28T04:28:10.721Z,9.43
2019-04-28T04:29:10.310Z,9.52
2019-04-28T04:30:10.935Z,9.49
2019-04-28T04:31:10.609Z,9.32
2019-04-28T04:32:20.483Z,9.48
2019-04-28T04:33:11.250Z,9.48
2019-04-28T04:34:10.830Z,9.52
2019-04-28T04:35:10.719Z,9.48
2019-04-28T04:36:11.915Z,9.46
2019-04-28T04:37:12.659Z,9.45
2019-04-28T04:38:11.001Z,9.45
2019-04-28T04:39:11.082Z,9.52
2019-04-28T04:40:13.260Z,9.48
2019-04-28T04:41:11.468Z,9.56
2019-04-28T04:42:11.351Z,9.50
2019-04-28T04:43:11.517Z,9.43
2019-04-28T04:44:11.533Z,9.49
2019-04-28T04:45:11.626Z,9.46
2019-04-28T04:46:14.161Z,9.43
2019-04-28T04:47:11.830Z,9.50
2019-04-28T04:48:11.956Z,9.58
2019-04-28T04:49:12.013Z,9.60
2019-04-28T04:50:13.202Z,9.45
2019-04-28T04:51:12.186Z,9.58
2019-04-28T04:52:12.278Z,9.63
2019-04-28T04:53:12.369Z,9.58
2019-04-28T04:54:12.457Z,9.61
2019-04-28T04:55:12.549Z,9.60
2019-04-28T04:56:12.639Z,9.58
2019-04-28T04:57:12.737Z,9.66
2019-04-28T04:58:12.833Z,9.75
2019-04-28T04:59:12.917Z,9.60
2019-04-28T05:00:13.006Z,9.73
2019-04-28T05:01:13.095Z,9.75
2019-04-28T05:02:26.718Z,9.85
2019-04-28T05:03:13.282Z,9.73
2019-04-28T05:04:13.369Z,9.66
2019-04-28T05:05:13.471Z,9.82
2019-04-28T05:06:13.561Z,9.82
2019-04-28T05:07:13.652Z,9.88
2019-04-28T05:08:15.537Z,9.81
2019-04-28T05:09:13.832Z,9.88
2019-04-28T05:10:13.924Z,9.91
2019-04-28T05:11:14.017Z,9.88
2019-04-28T05:12:14.104Z,9.93
2019-04-28T05:13:14.191Z,9.96
2019-04-28T05:14:14.280Z,9.83
2019-04-28T05:15:14.373Z,9.97
2019-04-28T05:16:14.465Z,10.00
2019-04-28T05:17:14.556Z,9.94
2019-04-28T05:18:14.645Z,9.99
2019-04-28T05:19:14.737Z,10.04
2019-04-28T05:20:14.829Z,10.03
2019-04-28T05:21:14.916Z,10.04
2019-04-28T05:22:15.008Z,10.06
2019-04-28T05:23:15.105Z,10.12
2019-04-28T05:24:15.952Z,10.09
2019-04-28T05:25:15.302Z,10.10
2019-04-28T05:26:15.386Z,10.19
2019-04-28T05:27:17.342Z,10.18
2019-04-28T05:28:15.579Z,10.01
2019-04-28T05:29:19.980Z,9.91
2019-04-28T05:30:15.750Z,10.04
2019-04-28T05:31:20.627Z,10.00
2019-04-28T05:32:15.930Z,10.03
2019-04-28T05:33:16.023Z,10.03
2019-04-28T05:34:16.108Z,10.10
2019-04-28T05:35:17.561Z,10.25
2019-04-28T05:36:16.290Z,10.10
2019-04-28T05:37:16.372Z,10.09
2019-04-28T05:38:16.482Z,10.06
2019-04-28T05:39:16.570Z,10.22
2019-04-28T05:40:16.660Z,10.19
2019-04-28T05:41:16.765Z,10.32
2019-04-28T05:42:16.841Z,10.37
2019-04-28T05:43:16.939Z,10.40
2019-04-28T05:44:17.026Z,10.44
2019-04-28T05:45:17.115Z,10.40
2019-04-28T05:46:17.208Z,10.46
2019-04-28T05:47:17.295Z,10.47
2019-04-28T05:48:17.386Z,10.62
2019-04-28T05:49:19.395Z,10.46
2019-04-28T05:50:19.566Z,10.60
2019-04-28T05:51:19.761Z,10.56
2019-04-28T05:52:19.945Z,10.53
2019-04-28T05:53:19.291Z,10.52
2019-04-28T05:54:19.742Z,10.55
2019-04-28T05:55:18.021Z,10.55
2019-04-28T05:56:18.111Z,10.60
2019-04-28T05:57:18.207Z,10.56
2019-04-28T05:58:19.831Z,10.63
2019-04-28T05:59:19.473Z,10.66
2019-04-28T06:00:19.786Z,10.65
2019-04-28T06:01:20.317Z,10.68
2019-04-28T06:02:21.265Z,10.81
2019-04-28T06:03:19.959Z,10.81
2019-04-28T06:04:19.923Z,10.81
2019-04-28T06:05:19.998Z,10.84
2019-04-28T06:06:20.440Z,10.84
2019-04-28T06:07:20.225Z,10.92
2019-04-28T06:08:20.217Z,10.96
2019-04-28T06:09:20.358Z,10.98
2019-04-28T06:10:20.241Z,10.99
2019-04-28T06:11:20.244Z,10.96
2019-04-28T06:12:20.166Z,10.86
2019-04-28T06:13:20.264Z,10.83
2019-04-28T06:14:19.936Z,10.98
2019-04-28T06:15:20.440Z,11.01
2019-04-28T06:16:22.189Z,11.10
2019-04-28T06:17:20.644Z,11.11
2019-04-28T06:18:20.647Z,11.17
2019-04-28T06:19:20.319Z,11.13
2019-04-28T06:20:20.370Z,11.24
2019-04-28T06:21:20.464Z,11.28
2019-04-28T06:22:20.554Z,11.24
2019-04-28T06:23:20.647Z,11.29
2019-04-28T06:24:20.737Z,11.36
2019-04-28T06:25:20.838Z,11.36
2019-04-28T06:26:20.919Z,11.53
2019-04-28T06:27:21.008Z,11.50
2019-04-28T06:28:21.103Z,11.56
2019-04-28T06:29:21.233Z,11.41
2019-04-28T06:30:21.281Z,11.39
2019-04-28T06:31:21.376Z,11.39
2019-04-28T06:32:21.466Z,11.46
2019-04-28T06:33:21.559Z,11.41
2019-04-28T06:34:21.653Z,11.31
2019-04-28T06:35:21.743Z,11.43
2019-04-28T06:36:21.829Z,11.49
2019-04-28T06:37:21.920Z,11.46
2019-04-28T06:38:22.014Z,11.61
2019-04-28T06:39:22.103Z,11.62
2019-04-28T06:40:22.194Z,11.70
2019-04-28T06:41:22.279Z,11.75
2019-04-28T06:42:22.368Z,11.83
2019-04-28T06:43:22.461Z,11.80
2019-04-28T06:44:22.552Z,11.78
2019-04-28T06:45:22.644Z,11.90
2019-04-28T06:46:22.733Z,12.04
2019-04-28T06:47:22.828Z,12.05
2019-04-28T06:48:22.920Z,12.11
2019-04-28T06:49:23.013Z,12.16
2019-04-28T06:50:23.106Z,12.13
2019-04-28T06:51:23.198Z,12.15
2019-04-28T06:52:23.294Z,12.16
2019-04-28T06:53:23.385Z,12.20
2019-04-28T06:54:23.474Z,12.16
2019-04-28T06:55:23.582Z,12.16
2019-04-28T06:56:23.676Z,12.05
2019-04-28T06:57:23.767Z,11.56
2019-04-28T06:58:23.861Z,11.49
2019-04-28T06:59:23.955Z,11.46
2019-04-28T07:00:24.047Z,11.21
2019-04-28T07:01:24.135Z,11.17
2019-04-28T07:02:24.232Z,11.11
2019-04-28T07:03:24.325Z,11.28
2019-04-28T07:04:24.416Z,11.35
2019-04-28T07:05:24.508Z,11.39
2019-04-28T07:06:24.603Z,11.34
2019-04-28T07:07:24.694Z,11.41
2019-04-28T07:08:24.786Z,11.46
2019-04-28T07:09:24.925Z,11.53
2019-04-28T07:10:24.968Z,11.65
2019-04-28T07:11:25.063Z,11.77
2019-04-28T07:12:25.153Z,11.83
2019-04-28T07:13:25.251Z,11.86
2019-04-28T07:14:25.327Z,11.93
2019-04-28T07:15:25.422Z,11.77
2019-04-28T07:16:25.515Z,11.90
2019-04-28T07:17:25.611Z,11.97
2019-04-28T07:18:25.701Z,11.97
2019-04-28T07:19:25.789Z,11.99
2019-04-28T07:20:25.888Z,12.09
2019-04-28T07:21:25.973Z,12.08
2019-04-28T07:22:26.065Z,12.09
2019-04-28T07:23:26.158Z,12.06
2019-04-28T07:24:26.249Z,12.16
2019-04-28T07:25:26.341Z,12.11
2019-04-28T07:26:26.432Z,12.13
2019-04-28T07:27:26.526Z,12.09
2019-04-28T07:28:26.637Z,12.06
2019-04-28T07:29:26.719Z,12.11
2019-04-28T07:30:26.805Z,12.06
2019-04-28T07:31:26.893Z,12.08
2019-04-28T07:32:26.982Z,12.02
2019-04-28T07:33:35.907Z,12.02
2019-04-28T07:34:27.169Z,12.08
2019-04-28T07:35:27.259Z,12.02
2019-04-28T07:36:27.350Z,12.15
2019-04-28T07:37:27.444Z,12.06
2019-04-28T07:38:27.540Z,12.01
2019-04-28T07:39:27.631Z,12.09
2019-04-28T07:40:27.717Z,12.05
2019-04-28T07:41:27.811Z,12.15
2019-04-28T07:42:27.907Z,12.13
2019-04-28T07:43:28.007Z,12.09
2019-04-28T07:44:28.087Z,12.16
2019-04-28T07:45:28.178Z,12.19
2019-04-28T07:46:28.271Z,12.24
2019-04-28T07:47:28.361Z,12.33
2019-04-28T07:48:28.454Z,12.41
2019-04-28T07:49:28.545Z,12.31
2019-04-28T07:50:28.640Z,12.34
2019-04-28T07:51:28.794Z,12.19
2019-04-28T07:52:28.830Z,11.86
2019-04-28T07:53:28.923Z,11.68
2019-04-28T07:54:29.018Z,11.78
2019-04-28T07:55:29.108Z,11.86
2019-04-28T07:56:29.202Z,11.93
2019-04-28T07:57:29.301Z,12.04
2019-04-28T07:58:29.387Z,12.09
2019-04-28T07:59:29.481Z,12.15
2019-04-28T08:00:36.735Z,12.24
2019-04-28T08:01:29.705Z,12.37
2019-04-28T08:02:29.797Z,12.39
2019-04-28T08:03:29.889Z,12.46
2019-04-28T08:04:29.983Z,12.59
2019-04-28T08:05:30.075Z,12.60
2019-04-28T08:06:30.160Z,12.31
2019-04-28T08:07:30.262Z,12.33
2019-04-28T08:08:30.343Z,12.20
2019-04-28T08:09:30.435Z,12.38
2019-04-28T08:10:30.530Z,12.48
2019-04-28T08:11:30.622Z,12.57
2019-04-28T08:12:30.712Z,12.66
2019-04-28T08:13:30.803Z,12.69
2019-04-28T08:14:30.890Z,12.92
2019-04-28T08:15:30.984Z,12.92
2019-04-28T08:16:31.081Z,13.11
2019-04-28T08:17:31.174Z,13.15
2019-04-28T08:18:31.734Z,13.29
2019-04-28T08:19:31.377Z,13.44
2019-04-28T08:20:31.471Z,13.51
2019-04-28T08:21:31.566Z,13.67
2019-04-28T08:22:31.656Z,13.88
2019-04-28T08:23:31.751Z,13.94
2019-04-28T08:24:31.843Z,13.73
2019-04-28T08:25:31.937Z,13.95
2019-04-28T08:26:32.026Z,13.98
2019-04-28T08:27:32.121Z,14.02
2019-04-28T08:28:32.214Z,13.99
2019-04-28T08:29:32.308Z,14.07
2019-04-28T08:30:32.400Z,14.29
2019-04-28T08:31:32.492Z,14.29
2019-04-28T08:32:32.604Z,14.20
2019-04-28T08:33:33.359Z,14.24
2019-04-28T08:34:32.790Z,14.29
2019-04-28T08:35:32.882Z,14.25
2019-04-28T08:36:32.975Z,14.34
2019-04-28T08:37:33.069Z,14.24
2019-04-28T08:38:33.160Z,14.27
2019-04-28T08:39:33.256Z,14.32
2019-04-28T08:40:33.350Z,14.25
2019-04-28T08:41:33.443Z,14.37
2019-04-28T08:42:33.540Z,14.53
2019-04-28T08:43:33.631Z,14.52
2019-04-28T08:44:33.728Z,14.44
2019-04-28T08:45:33.829Z,14.42
2019-04-28T08:46:33.927Z,14.06
2019-04-28T08:47:34.013Z,13.74
2019-04-28T08:48:34.107Z,13.70
2019-04-28T08:49:34.203Z,13.79
2019-04-28T08:50:34.295Z,13.87
2019-04-28T08:51:34.392Z,13.83
2019-04-28T08:52:34.474Z,13.70
2019-04-28T08:53:34.565Z,13.83
2019-04-28T08:54:34.660Z,13.80
2019-04-28T08:55:34.755Z,13.81
2019-04-28T08:56:34.849Z,13.70
2019-04-28T08:57:34.942Z,13.70
2019-04-28T08:58:35.068Z,13.71
2019-04-28T08:59:35.165Z,13.58
2019-04-28T09:00:35.258Z,13.67
2019-04-28T09:01:35.355Z,13.71
2019-04-28T09:02:35.441Z,13.67
2019-04-28T09:03:35.541Z,13.61
2019-04-28T09:04:35.632Z,13.63
2019-04-28T09:05:35.727Z,13.58
2019-04-28T09:06:35.811Z,13.61
2019-04-28T09:07:35.912Z,13.70
2019-04-28T09:08:35.991Z,13.47
2019-04-28T09:09:36.090Z,13.52
2019-04-28T09:10:36.185Z,13.59
2019-04-28T09:11:36.279Z,13.70
2019-04-28T09:12:36.369Z,13.63
2019-04-28T09:13:36.469Z,13.65
2019-04-28T09:14:36.553Z,13.76
2019-04-28T09:15:36.649Z,13.51
2019-04-28T09:16:36.752Z,13.54
2019-04-28T09:17:36.858Z,13.51
2019-04-28T09:18:36.969Z,13.61
2019-04-28T09:19:37.070Z,13.49
2019-04-28T09:20:37.164Z,13.51
2019-04-28T09:21:37.264Z,13.55
2019-04-28T09:22:37.411Z,13.03
2019-04-28T09:23:37.446Z,13.12
2019-04-28T09:24:37.569Z,13.00
2019-04-28T09:25:37.633Z,13.02
2019-04-28T09:26:37.726Z,12.92
2019-04-28T09:27:37.819Z,12.93
2019-04-28T09:28:37.901Z,12.92
2019-04-28T09:29:38.005Z,12.96
2019-04-28T09:30:38.119Z,12.89
2019-04-28T09:31:38.202Z,12.66
2019-04-28T09:32:38.290Z,12.78
2019-04-28T09:33:38.397Z,12.75
2019-04-28T09:34:38.489Z,12.81
2019-04-28T09:35:38.588Z,12.79
2019-04-28T09:36:38.685Z,12.82
2019-04-28T09:37:38.770Z,12.84
2019-04-28T09:38:38.853Z,12.84
2019-04-28T09:39:38.953Z,12.82
2019-04-28T09:40:39.057Z,12.92
2019-04-28T09:41:39.165Z,12.93
2019-04-28T09:42:39.261Z,12.99
2019-04-28T09:43:39.468Z,13.11
2019-04-28T09:44:39.607Z,13.15
2019-04-28T09:45:39.540Z,13.25
2019-04-28T09:46:39.621Z,13.36
2019-04-28T09:47:39.725Z,13.43
2019-04-28T09:48:39.820Z,13.58
2019-04-28T09:49:39.915Z,13.58
2019-04-28T09:50:40.004Z,13.65
2019-04-28T09:51:40.090Z,13.71
2019-04-28T09:52:40.175Z,13.88
2019-04-28T09:53:40.270Z,13.99
2019-04-28T09:54:40.365Z,14.01
2019-04-28T09:55:40.460Z,14.21
2019-04-28T09:56:40.553Z,14.14
2019-04-28T09:57:40.643Z,14.32
2019-04-28T09:58:40.737Z,14.28
2019-04-28T09:59:40.828Z,14.37
2019-04-28T10:00:40.925Z,14.35
2019-04-28T10:01:41.034Z,14.29
2019-04-28T10:02:41.150Z,14.29
2019-04-28T10:03:41.310Z,14.31
2019-04-28T10:04:42.218Z,14.32
2019-04-28T10:05:41.433Z,14.28
2019-04-28T10:06:41.525Z,14.02
2019-04-28T10:07:41.617Z,14.12
2019-04-28T10:08:41.707Z,14.16
2019-04-28T10:09:41.815Z,14.27
2019-04-28T10:10:41.923Z,14.25
2019-04-28T10:11:42.026Z,14.27
2019-04-28T10:12:42.130Z,14.29
2019-04-28T10:13:42.238Z,14.35
2019-04-28T10:14:42.394Z,14.44
2019-04-28T10:15:42.437Z,14.53
2019-04-28T10:16:42.533Z,14.47
2019-04-28T10:17:42.622Z,14.60
2019-04-28T10:18:42.723Z,14.50
2019-04-28T10:19:42.798Z,14.54
2019-04-28T10:20:42.901Z,14.56
2019-04-28T10:21:43.007Z,14.60
2019-04-28T10:22:43.119Z,14.52
2019-04-28T10:23:43.205Z,14.47
2019-04-28T10:24:43.300Z,14.39
2019-04-28T10:25:43.387Z,14.35
2019-04-28T10:26:43.489Z,14.34
2019-04-28T10:27:43.574Z,14.31
2019-04-28T10:28:43.682Z,14.24
2019-04-28T10:29:43.776Z,14.19
2019-04-28T10:30:43.871Z,14.32
2019-04-28T10:31:43.961Z,14.34
2019-04-28T10:32:44.048Z,14.32
2019-04-28T10:33:44.155Z,14.44
2019-04-28T10:34:54.299Z,14.32
2019-04-28T10:35:44.330Z,14.29
2019-04-28T10:36:44.427Z,14.28
2019-04-28T10:37:45.660Z,14.37
2019-04-28T10:38:44.611Z,14.46
2019-04-28T10:39:44.709Z,14.47
2019-04-28T10:40:44.793Z,14.50
2019-04-28T10:41:44.889Z,14.37
2019-04-28T10:42:44.988Z,14.25
2019-04-28T10:43:45.086Z,14.32
2019-04-28T10:44:45.178Z,14.28
2019-04-28T10:45:45.271Z,14.32
2019-04-28T10:46:45.369Z,14.16
2019-04-28T10:47:45.450Z,14.27
2019-04-28T10:48:45.540Z,14.16
2019-04-28T10:49:45.641Z,14.20
2019-04-28T10:50:45.736Z,14.13
2019-04-28T10:51:58.483Z,14.25
2019-04-28T10:52:45.914Z,14.20
2019-04-28T10:53:46.013Z,14.34
2019-04-28T10:54:46.101Z,14.38
2019-04-28T10:55:46.198Z,14.24
2019-04-28T10:56:46.300Z,14.25
2019-04-28T10:57:46.390Z,14.16
2019-04-28T10:58:46.487Z,14.31
2019-04-28T10:59:46.576Z,14.17
2019-04-28T11:00:46.680Z,14.32
2019-04-28T11:01:46.770Z,14.29
2019-04-28T11:02:46.861Z,14.14
2019-04-28T11:03:46.957Z,14.13
2019-04-28T11:04:47.053Z,14.31
2019-04-28T11:05:47.150Z,14.25
2019-04-28T11:06:47.236Z,14.44
2019-04-28T11:07:47.344Z,14.39
2019-04-28T11:08:47.484Z,14.54
2019-04-28T11:09:47.517Z,14.39
2019-04-28T11:10:47.617Z,14.25
2019-04-28T11:11:47.713Z,14.42
2019-04-28T11:12:47.810Z,14.38
2019-04-28T11:13:47.898Z,14.14
2019-04-28T11:14:47.998Z,14.21
2019-04-28T11:15:48.085Z,14.12
2019-04-28T11:16:48.182Z,14.12
2019-04-28T11:17:48.284Z,14.12
2019-04-28T11:18:48.381Z,14.02
2019-04-28T11:19:48.472Z,13.99
2019-04-28T11:20:48.569Z,14.02
2019-04-28T11:21:48.680Z,13.99
2019-04-28T11:22:48.772Z,14.12
2019-04-28T11:23:48.854Z,14.12
2019-04-28T11:24:48.951Z,14.07
2019-04-28T11:25:49.051Z,14.09
2019-04-28T11:26:49.163Z,13.99
2019-04-28T11:27:49.258Z,14.07
2019-04-28T11:28:49.372Z,14.06
2019-04-28T11:29:49.456Z,14.02
2019-04-28T11:30:49.549Z,14.02
2019-04-28T11:31:49.634Z,14.02
2019-04-28T11:32:49.718Z,14.02
2019-04-28T11:33:49.815Z,13.98
2019-04-28T11:34:49.916Z,13.95
2019-04-28T11:35:50.006Z,14.04
2019-04-28T11:36:50.136Z,13.91
2019-04-28T11:37:50.192Z,13.94
2019-04-28T11:38:50.292Z,13.84
2019-04-28T11:39:50.371Z,13.92
2019-04-28T11:40:50.478Z,13.80
2019-04-28T11:41:50.572Z,13.79
2019-04-28T11:42:50.656Z,13.73
2019-04-28T11:43:50.746Z,13.80
2019-04-28T11:44:50.837Z,13.70
2019-04-28T11:45:50.932Z,13.74
2019-04-28T11:46:51.028Z,13.70
2019-04-28T11:47:51.120Z,13.71
2019-04-28T11:48:51.213Z,13.71
2019-04-28T11:49:51.339Z,13.70
2019-04-28T11:50:51.394Z,13.67
2019-04-28T11:51:51.481Z,13.59
2019-04-28T11:52:51.588Z,13.63
2019-04-28T11:53:51.692Z,13.63
2019-04-28T11:54:51.809Z,13.59
2019-04-28T11:55:51.905Z,13.58
2019-04-28T11:56:51.997Z,13.38
2019-04-28T11:57:52.092Z,13.54
2019-04-28T11:58:52.176Z,13.40
2019-04-28T11:59:54.093Z,12.34
2019-04-28T12:00:52.363Z,11.82
2019-04-28T12:01:52.462Z,11.46
2019-04-28T12:02:52.560Z,11.36
2019-04-28T12:03:52.647Z,11.49
2019-04-28T12:04:52.739Z,11.59
2019-04-28T12:05:52.834Z,11.75
2019-04-28T12:06:52.925Z,11.64
2019-04-28T12:07:53.016Z,11.75
2019-04-28T12:08:53.116Z,11.75
2019-04-28T12:10:03.803Z,12.01
2019-04-28T12:10:53.304Z,12.12
2019-04-28T12:11:53.387Z,12.13
2019-04-28T12:12:53.494Z,12.24
2019-04-28T12:13:53.581Z,12.31
2019-04-28T12:14:53.670Z,12.38
2019-04-28T12:15:53.761Z,12.24
2019-04-28T12:16:53.843Z,11.90
2019-04-28T12:17:53.951Z,11.47
2019-04-28T12:18:54.043Z,11.20
2019-04-28T12:19:54.140Z,11.24
2019-04-28T12:20:54.226Z,11.25
2019-04-28T12:21:54.329Z,11.46
2019-04-28T12:22:54.431Z,11.65
2019-04-28T12:23:54.524Z,11.83
2019-04-28T12:24:54.650Z,12.01
2019-04-28T12:25:54.710Z,12.13
2019-04-28T12:26:54.813Z,12.29
2019-04-28T12:27:54.919Z,12.39
2019-04-28T12:28:54.985Z,12.39
2019-04-28T12:29:55.075Z,12.38
2019-04-28T12:30:55.165Z,12.64
2019-04-28T12:31:55.260Z,12.88
2019-04-28T12:32:55.364Z,12.51
2019-04-28T12:33:55.445Z,12.27
2019-04-28T12:34:55.548Z,12.09
2019-04-28T12:35:55.649Z,11.99
2019-04-28T12:36:55.733Z,12.06
2019-04-28T12:37:55.816Z,12.24
2019-04-28T12:38:55.913Z,12.39
2019-04-28T12:39:55.989Z,12.62
2019-04-28T12:40:56.095Z,12.78
2019-04-28T12:41:56.198Z,12.82
2019-04-28T12:42:56.305Z,12.93
2019-04-28T12:43:56.397Z,12.93
2019-04-28T12:44:56.491Z,13.04
2019-04-28T12:45:56.579Z,13.30
2019-04-28T12:46:56.679Z,13.49
2019-04-28T12:47:56.767Z,13.09
2019-04-28T12:48:56.862Z,12.93
2019-04-28T12:49:56.958Z,12.97
2019-04-28T12:50:57.170Z,13.27
2019-04-28T12:51:57.182Z,13.43
2019-04-28T12:52:57.278Z,13.58
2019-04-28T12:53:57.369Z,13.80
2019-04-28T12:54:57.464Z,13.99
2019-04-28T12:55:57.556Z,14.16
2019-04-28T12:56:57.656Z,14.27
2019-04-28T12:57:57.741Z,14.50
2019-04-28T12:58:57.838Z,14.56
2019-04-28T12:59:57.929Z,14.78
2019-04-28T13:00:58.030Z,15.09
2019-04-28T13:01:58.126Z,15.43